createdAt,value
2017-10-24T00:00:57.964Z,38.50
2017-10-24T00:03:26.303Z,32.67
2017-10-24T00:05:54.605Z,38.53
2017-10-24T00:08:22.924Z,40.17
2017-10-24T00:10:51.216Z,45.27
2017-10-24T00:13:20.329Z,36.53
2017-10-24T00:15:48.633Z,43.53
2017-10-24T00:18:16.920Z,54.70
2017-10-24T00:20:45.221Z,86.83
2017-10-24T00:23:13.609Z,109.43
2017-10-24T00:25:42.710Z,141.47
2017-10-24T00:28:10.990Z,125.23
2017-10-24T00:30:40.060Z,91.40
2017-10-24T00:33:08.847Z,210.33
2017-10-24T00:35:37.123Z,160.53
2017-10-24T00:38:05.406Z,86.13
2017-10-24T00:40:33.741Z,207.70
2017-10-24T00:43:02.021Z,144.73
2017-10-24T00:45:30.263Z,88.20
2017-10-24T00:47:58.614Z,163.20
2017-10-24T00:50:27.010Z,145.17
2017-10-24T00:52:56.065Z,192.80
2017-10-24T00:55:24.559Z,170.57
2017-10-24T00:57:52.870Z,187.70
2017-10-24T01:00:21.151Z,144.23
2017-10-24T01:02:50.239Z,326.50
2017-10-24T01:05:18.550Z,30.27
2017-10-24T01:07:46.888Z,223.47
2017-10-24T01:10:15.203Z,91.30
2017-10-24T01:12:43.588Z,203.67
2017-10-24T01:15:11.955Z,172.53
2017-10-24T01:17:40.256Z,162.80
2017-10-24T01:20:09.075Z,152.93
2017-10-24T01:22:38.177Z,131.00
2017-10-24T01:25:06.516Z,162.67
2017-10-24T01:27:34.782Z,220.47
2017-10-24T01:30:03.055Z,102.37
2017-10-24T01:32:31.760Z,371.93
2017-10-24T01:35:00.076Z,1083.03
2017-10-24T01:37:29.105Z,876.43
2017-10-24T01:39:57.530Z,324.00
2017-10-24T01:42:26.564Z,241.90
2017-10-24T01:44:54.996Z,722.37
2017-10-24T01:47:23.356Z,268.83
2017-10-24T01:49:51.630Z,200.63
2017-10-24T01:52:19.929Z,237.30
2017-10-24T01:54:48.246Z,147.17
2017-10-24T01:57:16.498Z,181.13
2017-10-24T01:59:45.528Z,395.23
2017-10-24T02:02:13.836Z,122.67
2017-10-24T02:04:42.132Z,150.43
2017-10-24T02:07:10.378Z,158.67
2017-10-24T02:09:38.680Z,217.93
2017-10-24T02:12:07.701Z,145.10
2017-10-24T02:14:36.917Z,310.43
2017-10-24T02:17:05.239Z,141.80
2017-10-24T02:19:33.540Z,471.73
2017-10-24T02:22:02.580Z,253.57
2017-10-24T02:24:30.858Z,164.37
2017-10-24T02:26:59.206Z,275.90
2017-10-24T02:29:27.491Z,148.37
2017-10-24T02:31:55.768Z,185.50
2017-10-24T02:34:24.111Z,107.53
2017-10-24T02:36:52.442Z,95.30
2017-10-24T02:39:20.729Z,122.70
2017-10-24T02:41:49.152Z,120.33
2017-10-24T02:44:18.216Z,178.13
2017-10-24T02:46:46.460Z,191.97
2017-10-24T02:49:14.828Z,138.73
2017-10-24T02:51:43.099Z,208.97
2017-10-24T02:54:11.377Z,136.27
2017-10-24T02:56:39.738Z,124.50
2017-10-24T02:59:08.038Z,97.03
2017-10-24T03:01:36.318Z,71.40
2017-10-24T03:04:04.723Z,124.87
2017-10-24T03:06:33.012Z,100.20
2017-10-24T03:09:01.313Z,158.40
2017-10-24T03:11:29.736Z,266.33
2017-10-24T03:13:58.035Z,121.17
2017-10-24T03:16:26.324Z,27.47
2017-10-24T03:18:55.420Z,83.43
2017-10-24T03:21:23.715Z,36.83
2017-10-24T03:23:51.996Z,161.63
2017-10-24T03:26:20.312Z,128.97
2017-10-24T03:28:48.587Z,181.70
2017-10-24T03:31:16.885Z,259.00
2017-10-24T03:33:45.227Z,13.93
2017-10-24T03:36:13.502Z,131.37
2017-10-24T03:38:42.016Z,17.00
2017-10-24T03:41:10.350Z,61.47
2017-10-24T03:43:38.636Z,176.93
2017-10-24T03:46:06.909Z,172.87
2017-10-24T03:48:35.268Z,202.67
2017-10-24T03:51:04.335Z,64.77
2017-10-24T03:53:33.440Z,37.07
2017-10-24T03:56:02.596Z,239.07
2017-10-24T03:58:30.893Z,229.30
2017-10-24T04:00:59.220Z,134.37
2017-10-24T04:03:27.619Z,139.63
2017-10-24T04:05:55.898Z,88.67
2017-10-24T04:08:24.150Z,102.97
2017-10-24T04:10:52.891Z,153.60
2017-10-24T04:13:21.190Z,183.83
2017-10-24T04:15:50.219Z,130.40
2017-10-24T04:18:18.945Z,428.97
2017-10-24T04:20:47.222Z,37.00
2017-10-24T04:23:15.712Z,181.73
2017-10-24T04:25:44.055Z,141.10
2017-10-24T04:28:12.419Z,240.00
2017-10-24T04:30:40.678Z,81.37
2017-10-24T04:33:09.352Z,235.40
2017-10-24T04:35:37.634Z,165.27
2017-10-24T04:38:05.947Z,149.83
2017-10-24T04:40:34.287Z,164.20
2017-10-24T04:43:02.593Z,106.27
2017-10-24T04:45:30.907Z,238.60
2017-10-24T04:47:59.595Z,77.17
2017-10-24T04:50:28.618Z,92.23
2017-10-24T04:52:56.906Z,147.37
2017-10-24T04:55:25.241Z,187.07
2017-10-24T04:57:53.580Z,107.33
2017-10-24T05:00:21.882Z,83.47
2017-10-24T05:02:50.216Z,122.07
2017-10-24T05:05:18.536Z,166.70
2017-10-24T05:07:46.922Z,157.07
2017-10-24T05:10:15.236Z,63.03
2017-10-24T05:12:43.505Z,185.10
2017-10-24T05:15:12.155Z,26.40
2017-10-24T05:17:41.454Z,32.50
2017-10-24T05:20:09.693Z,18.40
2017-10-24T05:22:37.978Z,24.63
2017-10-24T05:25:06.333Z,153.10
2017-10-24T05:27:34.594Z,94.67
2017-10-24T05:30:02.859Z,162.23
2017-10-24T05:32:31.196Z,147.27
2017-10-24T05:34:59.493Z,10.37
2017-10-24T05:37:27.775Z,11.20
2017-10-24T05:39:56.103Z,84.87
2017-10-24T05:42:24.391Z,83.13
2017-10-24T05:44:52.630Z,9.60
2017-10-24T05:47:21.515Z,11.27
2017-10-24T05:49:49.772Z,65.93
2017-10-24T05:52:18.784Z,163.93
2017-10-24T05:54:47.086Z,84.47
2017-10-24T05:57:15.454Z,57.57
2017-10-24T05:59:43.692Z,57.00
2017-10-24T06:02:12.762Z,46.60
2017-10-24T06:04:41.138Z,22.67
2017-10-24T06:07:09.455Z,54.57
2017-10-24T06:09:38.459Z,100.30
2017-10-24T06:12:06.806Z,121.63
2017-10-24T06:14:35.924Z,57.10
2017-10-24T06:17:04.155Z,9.97
2017-10-24T06:19:32.527Z,10.60
2017-10-24T06:22:00.802Z,11.10
2017-10-24T06:24:29.072Z,39.90
2017-10-24T06:26:57.357Z,11.20
2017-10-24T06:29:25.760Z,9.83
2017-10-24T06:31:54.795Z,10.27
2017-10-24T06:34:23.044Z,9.70
2017-10-24T06:36:51.430Z,10.40
2017-10-24T06:39:19.736Z,10.17
2017-10-24T06:41:48.072Z,9.83
2017-10-24T06:44:17.516Z,10.03
2017-10-24T06:46:45.753Z,10.33
2017-10-24T06:49:14.783Z,10.77
2017-10-24T06:51:43.095Z,11.60
2017-10-24T06:54:11.396Z,10.07
2017-10-24T06:56:39.679Z,8.20
2017-10-24T06:59:08.096Z,9.60
2017-10-24T07:01:37.237Z,10.87
2017-10-24T07:04:06.264Z,9.40
2017-10-24T07:06:34.569Z,9.07
2017-10-24T07:09:02.881Z,8.00
2017-10-24T07:11:31.930Z,9.10
2017-10-24T07:14:00.232Z,16.83
2017-10-24T07:16:28.619Z,9.27
2017-10-24T07:18:57.696Z,10.57
2017-10-24T07:21:25.943Z,9.47
2017-10-24T07:23:55.072Z,9.10
2017-10-24T07:26:23.399Z,8.70
2017-10-24T07:28:51.653Z,10.03
2017-10-24T07:31:20.763Z,10.43
2017-10-24T07:33:49.014Z,13.73
2017-10-24T07:36:17.271Z,13.07
2017-10-24T07:38:45.638Z,9.17
2017-10-24T07:41:13.916Z,9.67
2017-10-24T07:43:43.011Z,10.30
2017-10-24T07:46:11.396Z,9.43
2017-10-24T07:48:39.646Z,10.47
2017-10-24T07:51:07.907Z,12.03
2017-10-24T07:53:36.241Z,10.13
2017-10-24T07:56:04.487Z,10.20
2017-10-24T07:58:32.764Z,11.40
2017-10-24T08:01:01.097Z,10.80
2017-10-24T08:03:29.356Z,14.90
2017-10-24T08:05:58.359Z,10.37
2017-10-24T08:08:27.486Z,10.80
2017-10-24T08:10:56.507Z,10.63
2017-10-24T08:13:24.782Z,9.87
2017-10-24T08:15:53.100Z,11.77
2017-10-24T08:18:22.143Z,11.20
2017-10-24T08:20:50.405Z,10.27
2017-10-24T08:23:18.737Z,9.17
2017-10-24T08:25:47.769Z,14.27
2017-10-24T08:28:16.048Z,11.53
2017-10-24T08:30:44.377Z,9.30
2017-10-24T08:33:12.652Z,10.33
2017-10-24T08:35:40.963Z,13.63
2017-10-24T08:38:09.291Z,19.73
2017-10-24T08:40:37.545Z,10.20
2017-10-24T08:43:05.855Z,11.50
2017-10-24T08:45:34.340Z,14.23
2017-10-24T08:48:03.355Z,11.73
2017-10-24T08:50:31.622Z,11.03
2017-10-24T08:52:59.928Z,14.17
2017-10-24T08:55:28.162Z,10.27
2017-10-24T08:57:57.279Z,11.87
2017-10-24T09:00:26.351Z,11.43
2017-10-24T09:02:54.917Z,12.10
2017-10-24T09:05:23.968Z,12.90
2017-10-24T09:07:52.254Z,12.50
2017-10-24T09:14:18.103Z,19.53
2017-10-24T09:16:50.201Z,14.33
2017-10-24T09:22:33.961Z,18.60
2017-10-24T09:25:02.275Z,11.57
2017-10-24T09:27:30.590Z,14.53
2017-10-24T09:29:58.872Z,12.40
2017-10-24T09:32:31.618Z,14.40
2017-10-24T09:34:59.868Z,14.57
2017-10-24T09:37:28.888Z,15.07
2017-10-24T09:39:57.230Z,23.03
2017-10-24T09:42:26.353Z,13.80
2017-10-24T09:44:54.636Z,12.73
2017-10-24T09:47:22.952Z,26.67
2017-10-24T09:49:57.936Z,13.07
2017-10-24T09:52:26.276Z,13.20
2017-10-24T09:54:54.578Z,14.60
2017-10-24T09:57:23.635Z,13.17
2017-10-24T09:59:51.945Z,13.40
2017-10-24T10:02:20.261Z,14.70
2017-10-24T10:04:48.886Z,31.97
2017-10-24T10:07:17.200Z,18.00
2017-10-24T10:09:45.465Z,24.80
2017-10-24T10:12:13.718Z,15.40
2017-10-24T10:14:42.809Z,17.97
2017-10-24T10:17:11.054Z,16.40
2017-10-24T10:19:39.329Z,14.17
2017-10-24T10:22:12.027Z,13.50
2017-10-24T10:24:40.322Z,14.93
2017-10-24T10:27:09.375Z,18.33
2017-10-24T10:29:37.739Z,38.47
2017-10-24T10:32:06.050Z,23.30
2017-10-24T10:34:34.340Z,31.43
2017-10-24T10:37:03.415Z,29.27
2017-10-24T10:39:31.675Z,14.57
2017-10-24T10:41:59.979Z,16.67
2017-10-24T10:44:28.279Z,27.00
2017-10-24T10:46:57.323Z,16.60
2017-10-24T10:49:25.600Z,26.63
2017-10-24T10:51:53.889Z,41.23
2017-10-24T10:54:22.179Z,44.37
2017-10-24T10:56:50.505Z,41.93
2017-10-24T10:59:18.896Z,43.87
2017-10-24T11:01:47.189Z,33.70
2017-10-24T11:04:15.536Z,18.10
2017-10-24T11:06:43.885Z,15.77
2017-10-24T11:09:12.973Z,43.37
2017-10-24T11:11:42.026Z,16.80
2017-10-24T11:14:10.295Z,37.20
2017-10-24T11:16:38.525Z,17.83
2017-10-24T11:19:06.879Z,18.10
2017-10-24T11:21:35.180Z,17.53
2017-10-24T11:24:03.479Z,23.63
2017-10-24T11:26:31.849Z,20.40
2017-10-24T11:29:00.146Z,18.40
2017-10-24T11:31:28.420Z,19.03
2017-10-24T11:33:57.543Z,18.63
2017-10-24T11:36:25.832Z,17.90
2017-10-24T11:38:54.096Z,16.30
2017-10-24T11:41:22.427Z,18.63
2017-10-24T11:43:50.692Z,17.60
2017-10-24T11:46:18.949Z,15.67
2017-10-24T11:48:48.054Z,21.07
2017-10-24T11:51:17.097Z,18.80
2017-10-24T11:53:45.344Z,14.70
2017-10-24T11:56:13.636Z,17.60
2017-10-24T11:58:41.903Z,25.70
2017-10-24T12:01:10.231Z,22.97
2017-10-24T12:03:38.537Z,19.60
2017-10-24T12:06:07.567Z,20.13
2017-10-24T12:08:35.900Z,19.80
2017-10-24T12:11:04.949Z,23.37
2017-10-24T12:13:33.249Z,15.63
2017-10-24T12:16:01.597Z,23.57
2017-10-24T12:18:29.886Z,13.13
2017-10-24T12:20:58.203Z,24.20
2017-10-24T12:23:27.310Z,15.53
2017-10-24T12:25:55.559Z,15.73
2017-10-24T12:28:24.579Z,14.83
2017-10-24T12:30:52.896Z,14.90
2017-10-24T12:33:21.169Z,20.20
2017-10-24T12:35:49.468Z,11.50
2017-10-24T12:38:17.783Z,15.90
2017-10-24T12:40:46.049Z,13.60
2017-10-24T12:43:15.089Z,17.87
2017-10-24T12:45:43.430Z,23.43
2017-10-24T12:48:11.685Z,15.73
2017-10-24T12:50:46.502Z,17.00
2017-10-24T12:53:15.530Z,18.50
2017-10-24T12:55:43.831Z,27.40
2017-10-24T13:11:42.642Z,23.87
2017-10-24T13:14:11.739Z,25.10
2017-10-24T13:16:40.514Z,24.27
2017-10-24T13:19:08.793Z,23.40
2017-10-24T13:21:37.111Z,19.47
2017-10-24T13:24:05.452Z,20.03
2017-10-24T13:26:33.730Z,26.33
2017-10-24T13:29:02.142Z,23.13
2017-10-24T13:31:30.427Z,17.60
2017-10-24T13:33:58.723Z,26.67
2017-10-24T13:36:27.547Z,34.10
2017-10-24T13:38:57.014Z,35.10
2017-10-24T13:41:26.091Z,24.30
2017-10-24T13:43:54.376Z,29.80
2017-10-24T13:46:22.624Z,31.70
2017-10-24T13:48:52.164Z,35.00
2017-10-24T13:51:20.404Z,31.90
2017-10-24T13:53:49.483Z,30.57
2017-10-24T13:56:17.881Z,27.93
2017-10-24T13:58:46.231Z,22.67
2017-10-24T14:01:14.521Z,23.90
2017-10-24T14:03:44.151Z,34.57
2017-10-24T14:06:17.920Z,26.40
2017-10-24T14:08:51.708Z,27.60
2017-10-24T14:11:19.996Z,40.30
2017-10-24T14:13:48.250Z,30.00
2017-10-24T14:16:16.598Z,32.80
2017-10-24T14:18:44.911Z,33.80
2017-10-24T14:21:13.176Z,24.30
2017-10-24T14:23:41.485Z,25.63
2017-10-24T14:26:09.924Z,35.03
2017-10-24T14:28:38.200Z,32.57
2017-10-24T14:31:06.497Z,31.33
2017-10-24T14:33:35.111Z,29.73
2017-10-24T14:36:04.161Z,30.73
2017-10-24T14:38:32.414Z,20.37
2017-10-24T14:41:00.773Z,26.03
2017-10-24T14:43:29.047Z,18.47
2017-10-24T14:45:57.356Z,25.60
2017-10-24T14:48:26.900Z,23.83
2017-10-24T14:50:55.247Z,25.57
2017-10-24T14:53:23.513Z,28.57
2017-10-24T14:55:51.853Z,25.40
2017-10-24T14:58:20.119Z,19.40
2017-10-24T15:00:49.155Z,24.63
2017-10-24T15:03:17.442Z,21.53
2017-10-24T15:05:45.729Z,24.57
2017-10-24T15:08:14.001Z,24.17
2017-10-24T15:10:42.407Z,24.37
2017-10-24T15:13:11.452Z,18.77
2017-10-24T15:15:39.745Z,27.03
2017-10-24T15:18:08.156Z,19.10
2017-10-24T15:20:36.411Z,16.07
2017-10-24T15:23:04.711Z,17.67
2017-10-24T15:25:33.002Z,11.97
2017-10-24T15:28:02.014Z,25.17
2017-10-24T15:30:30.273Z,31.90
2017-10-24T15:32:58.603Z,23.20
2017-10-24T15:35:27.086Z,27.60
2017-10-24T15:37:55.327Z,13.40
2017-10-24T15:40:23.615Z,13.50
2017-10-24T15:42:51.905Z,14.40
2017-10-24T15:45:20.163Z,16.07
2017-10-24T15:47:48.475Z,13.60
2017-10-24T15:50:17.569Z,18.80
2017-10-24T15:52:46.492Z,13.87
2017-10-24T15:55:14.857Z,14.50
2017-10-24T15:57:43.920Z,15.37
2017-10-24T16:00:12.189Z,20.17
2017-10-24T16:02:40.550Z,25.57
2017-10-24T16:05:08.911Z,16.90
2017-10-24T16:07:37.200Z,18.43
2017-10-24T16:10:05.539Z,18.20
2017-10-24T16:12:34.582Z,27.13
2017-10-24T16:15:02.902Z,24.33
2017-10-24T16:17:31.989Z,21.93
2017-10-24T16:20:00.290Z,25.80
2017-10-24T16:22:29.446Z,24.07
2017-10-24T16:24:57.747Z,19.60
2017-10-24T16:27:26.784Z,13.73
2017-10-24T16:29:55.120Z,22.40
2017-10-24T16:32:24.302Z,15.53
2017-10-24T16:34:53.689Z,18.60
2017-10-24T16:37:22.945Z,16.30
2017-10-24T16:39:51.345Z,14.73
2017-10-24T16:42:19.621Z,25.57
2017-10-24T16:44:48.039Z,15.90
2017-10-24T16:47:17.315Z,18.10
2017-10-24T16:49:45.698Z,28.20
2017-10-24T16:52:13.956Z,20.27
2017-10-24T16:54:42.248Z,18.13
2017-10-24T16:57:10.589Z,22.87
2017-10-24T16:59:38.887Z,36.10
2017-10-24T17:02:07.172Z,36.03
2017-10-24T17:04:36.038Z,32.87
2017-10-24T17:07:04.299Z,19.80
2017-10-24T17:09:32.571Z,27.50
2017-10-24T17:12:03.034Z,24.53
2017-10-24T17:14:32.295Z,18.20
2017-10-24T17:17:00.577Z,14.63
2017-10-24T17:19:28.987Z,15.30
2017-10-24T17:21:57.452Z,25.70
2017-10-24T17:24:25.716Z,14.93
2017-10-24T17:26:54.379Z,39.63
2017-10-24T17:29:23.396Z,29.93
2017-10-24T17:31:51.685Z,16.43
2017-10-24T17:34:20.839Z,20.83
2017-10-24T17:36:49.901Z,19.03
2017-10-24T17:39:18.214Z,22.20
2017-10-24T17:41:47.333Z,18.13
2017-10-24T17:44:15.628Z,21.10
2017-10-24T17:46:43.991Z,28.57
2017-10-24T17:49:12.250Z,18.63
2017-10-24T17:51:41.291Z,27.77
2017-10-24T17:54:12.000Z,40.23
2017-10-24T17:56:40.277Z,20.13
2017-10-24T17:59:08.589Z,20.23
2017-10-24T18:01:38.097Z,21.30
2017-10-24T18:04:06.425Z,21.97
2017-10-24T18:06:34.698Z,31.80
2017-10-24T18:09:03.036Z,30.83
2017-10-24T18:11:32.481Z,43.87
2017-10-24T18:14:00.863Z,34.77
2017-10-24T18:16:29.262Z,32.37
2017-10-24T18:18:57.532Z,42.03
2017-10-24T18:21:25.875Z,31.57
2017-10-24T18:23:54.457Z,21.43
2017-10-24T18:26:25.049Z,44.90
2017-10-24T18:28:53.414Z,27.37
2017-10-24T18:31:21.724Z,28.80
2017-10-24T18:33:51.844Z,23.70
2017-10-24T18:36:20.212Z,31.30
2017-10-24T18:38:48.549Z,44.23
2017-10-24T18:41:16.846Z,22.60
2017-10-24T18:43:45.243Z,39.47
2017-10-24T18:46:13.619Z,29.00
2017-10-24T18:48:41.966Z,24.47
2017-10-24T18:51:10.277Z,34.77
2017-10-24T18:53:38.656Z,27.33
2017-10-24T18:56:06.969Z,23.80
2017-10-24T18:58:35.240Z,33.80
2017-10-24T19:01:03.964Z,37.47
2017-10-24T19:03:32.216Z,35.67
2017-10-24T19:06:00.546Z,39.67
2017-10-24T19:08:29.641Z,27.03
2017-10-24T19:10:57.915Z,34.47
2017-10-24T19:13:26.941Z,21.50
2017-10-24T19:15:55.612Z,24.37
2017-10-24T19:18:24.628Z,38.03
2017-10-24T19:20:52.940Z,33.10
2017-10-24T19:23:21.265Z,28.77
2017-10-24T19:25:50.302Z,25.80
2017-10-24T19:28:18.619Z,33.20
2017-10-24T19:30:47.748Z,35.63
2017-10-24T19:33:16.001Z,28.10
2017-10-24T19:35:44.315Z,33.37
2017-10-24T19:38:14.428Z,37.67
2017-10-24T19:40:42.715Z,29.03
2017-10-24T19:43:11.024Z,38.40
2017-10-24T19:45:40.086Z,31.67
2017-10-24T19:48:08.535Z,28.10
2017-10-24T19:50:39.198Z,25.93
2017-10-24T19:53:07.644Z,28.30
2017-10-24T19:55:36.873Z,32.97
2017-10-24T19:58:05.368Z,33.00
2017-10-24T20:00:33.968Z,37.90
2017-10-24T20:03:02.501Z,34.13
2017-10-24T20:05:31.149Z,35.70
2017-10-24T20:07:59.686Z,27.13
2017-10-24T20:10:28.178Z,27.87
2017-10-24T20:12:56.608Z,30.53
2017-10-24T20:15:25.661Z,40.60
2017-10-24T20:17:54.072Z,33.93
2017-10-24T20:20:22.506Z,22.83
2017-10-24T20:22:50.932Z,27.83
2017-10-24T20:25:19.986Z,34.23
2017-10-24T20:27:48.303Z,26.40
2017-10-24T20:30:17.436Z,30.03
2017-10-24T20:32:45.767Z,38.47
2017-10-24T20:35:14.134Z,33.27
2017-10-24T20:37:43.672Z,34.00
2017-10-24T20:40:12.726Z,35.03
2017-10-24T20:42:41.171Z,29.93
2017-10-24T20:45:09.629Z,38.63
2017-10-24T20:47:37.983Z,23.97
2017-10-24T20:50:07.057Z,32.60
2017-10-24T20:52:36.367Z,31.73
2017-10-24T20:55:04.652Z,35.90
2017-10-24T20:57:32.947Z,35.43
2017-10-24T21:00:01.305Z,23.93
2017-10-24T21:02:29.625Z,35.10
2017-10-24T21:04:58.000Z,26.03
2017-10-24T21:07:26.261Z,26.33
2017-10-24T21:09:54.623Z,28.93
2017-10-24T21:12:23.776Z,37.77
2017-10-24T21:14:52.321Z,31.03
2017-10-24T21:17:20.715Z,21.83
2017-10-24T21:19:49.067Z,34.83
2017-10-24T21:22:17.461Z,31.33
2017-10-24T21:24:45.779Z,20.87
2017-10-24T21:27:14.235Z,32.40
2017-10-24T21:29:42.567Z,25.53
2017-10-24T21:32:13.813Z,20.93
2017-10-24T21:34:42.836Z,22.83
2017-10-24T21:37:11.866Z,29.03
2017-10-24T21:39:40.245Z,25.07
2017-10-24T21:42:08.506Z,29.10
2017-10-24T21:44:36.808Z,23.10
2017-10-24T21:47:05.176Z,28.83
2017-10-24T21:49:33.454Z,24.60
2017-10-24T21:52:01.723Z,26.93
2017-10-24T21:54:30.096Z,38.30
2017-10-24T21:56:58.349Z,37.27
2017-10-24T21:59:27.419Z,32.23
2017-10-24T22:01:56.577Z,32.53
2017-10-24T22:04:24.857Z,24.90
2017-10-24T22:06:53.189Z,39.87
2017-10-24T22:09:21.524Z,28.07
2017-10-24T22:11:50.660Z,35.73
2017-10-24T22:14:18.951Z,30.20
2017-10-24T22:16:47.274Z,28.50
2017-10-24T22:19:15.601Z,28.50
2017-10-24T22:21:43.920Z,25.63
2017-10-24T22:24:12.969Z,35.97
2017-10-24T22:26:42.174Z,32.07
2017-10-24T22:29:10.461Z,29.23
2017-10-24T22:31:38.771Z,21.90
2017-10-24T22:34:07.940Z,35.30
2017-10-24T22:36:36.224Z,29.07
2017-10-24T22:39:05.290Z,28.83
2017-10-24T22:41:33.693Z,25.90
2017-10-24T22:44:02.000Z,28.13
2017-10-24T22:46:31.064Z,32.47
2017-10-24T22:48:59.411Z,41.73
2017-10-24T22:51:27.707Z,28.07
2017-10-24T22:53:56.012Z,36.93
2017-10-24T22:56:24.375Z,42.30
2017-10-24T22:58:53.478Z,42.53
2017-10-24T23:01:21.732Z,24.77
2017-10-24T23:03:50.054Z,30.53
2017-10-24T23:06:19.108Z,28.70
2017-10-24T23:08:47.361Z,31.37
2017-10-24T23:11:15.710Z,43.27
2017-10-24T23:13:44.731Z,36.10
2017-10-24T23:16:12.998Z,32.70
2017-10-24T23:18:41.323Z,42.90
2017-10-24T23:21:09.588Z,41.90
2017-10-24T23:23:37.878Z,43.73
2017-10-24T23:26:06.239Z,39.23
2017-10-24T23:28:34.506Z,29.60
2017-10-24T23:31:02.866Z,33.83
2017-10-24T23:33:31.261Z,31.10
2017-10-24T23:35:59.552Z,43.43
2017-10-24T23:38:28.644Z,39.77
2017-10-24T23:40:57.009Z,46.07
2017-10-24T23:43:25.333Z,49.77
2017-10-24T23:45:54.342Z,40.83
2017-10-24T23:48:22.669Z,37.77
2017-10-24T23:50:50.927Z,42.17
2017-10-24T23:53:19.174Z,42.80
2017-10-24T23:55:47.915Z,47.90
2017-10-24T23:58:16.188Z,45.70
